Time;durP1;ratioP1;P1;durP2;ratioP2;P2;SDS_P1;SDS_P2;PMS_P1;PMS_P2;Temp;Humidity;BMP_temperature;BMP_pressure;BME280_temperature;BME280_humidity;BME280_pressure;Samples;Min_cycle;Max_cycle;Signal;HPM_P1;HPM_P2
2022/04/01 00:00:48;;;;;;;21.40;6.03;;;;;;;16.26;71.10;98040.28;5110023;28;20205;-51
2022/04/01 00:03:15;;;;;;;25.07;6.20;;;;;;;16.18;72.89;98080.13;5110098;28;20199;-51
2022/04/01 00:05:42;;;;;;;20.13;5.63;;;;;;;16.14;72.02;98065.59;5110330;28;20613;-52
2022/04/01 00:08:09;;;;;;;26.67;6.03;;;;;;;16.09;74.36;98057.28;5110167;28;20575;-52
2022/04/01 00:10:36;;;;;;;22.07;6.80;;;;;;;15.92;76.52;98015.81;5110193;28;20228;-52
2022/04/01 00:13:04;;;;;;;25.30;6.50;;;;;;;15.83;77.66;98011.25;5109983;28;20191;-51
2022/04/01 00:15:31;;;;;;;33.87;7.13;;;;;;;15.62;78.51;97966.59;5110011;28;20642;-52
2022/04/01 00:18:00;;;;;;;21.70;5.80;;;;;;;15.55;80.21;97979.31;5109862;28;20222;-52
2022/04/01 00:20:28;;;;;;;27.97;6.77;;;;;;;15.42;81.23;97975.03;5111687;28;20201;-50
2022/04/01 00:22:55;;;;;;;18.87;6.30;;;;;;;15.34;82.70;97941.63;5113958;28;20251;-51
2022/04/01 00:25:23;;;;;;;22.73;6.43;;;;;;;15.32;83.25;97968.81;5114065;28;20649;-51
2022/04/01 00:27:50;;;;;;;26.03;6.27;;;;;;;15.24;84.19;97938.81;5113683;28;20206;-51
2022/04/01 00:30:18;;;;;;;20.73;6.83;;;;;;;15.20;84.67;97928.72;5113872;28;20199;-50
2022/04/01 00:32:45;;;;;;;23.97;7.13;;;;;;;15.14;85.00;97934.38;5114140;28;20628;-51
2022/04/01 00:35:13;;;;;;;22.97;6.57;;;;;;;15.04;86.34;97871.50;5113608;28;20187;-51
2022/04/01 00:37:40;;;;;;;33.07;7.03;;;;;;;14.99;87.18;97873.63;5113727;28;20666;-50
2022/04/01 00:40:10;;;;;;;22.13;6.87;;;;;;;14.97;87.20;97880.75;5113443;28;20249;-52
2022/04/01 00:42:37;;;;;;;24.53;7.40;;;;;;;14.96;87.35;97914.81;5114031;28;20281;-51
2022/04/01 00:45:05;;;;;;;24.47;6.30;;;;;;;14.83;88.19;97900.03;5113389;28;20219;-51
2022/04/01 00:47:32;;;;;;;23.20;6.13;;;;;;;14.85;87.58;97932.09;5113646;28;20194;-51
2022/04/01 00:49:59;;;;;;;24.03;5.93;;;;;;;14.91;87.49;97896.84;5113417;28;20201;-51
2022/04/01 00:52:27;;;;;;;24.37;6.03;;;;;;;14.86;87.13;97912.03;5113583;28;20199;-52
2022/04/01 00:54:54;;;;;;;19.27;5.90;;;;;;;14.94;86.48;97891.41;5113423;28;20676;-52
2022/04/01 00:57:25;;;;;;;18.10;5.90;;;;;;;14.89;86.75;97922.28;5113329;28;20272;-52
2022/04/01 00:59:54;;;;;;;19.23;6.23;;;;;;;14.96;85.63;97850.34;5113427;28;20216;-51
2022/04/01 01:02:21;;;;;;;23.43;7.13;;;;;;;14.97;85.45;97833.72;5113312;28;20579;-50
2022/04/01 01:04:48;;;;;;;24.40;6.30;;;;;;;14.96;85.42;97873.84;5112955;28;20226;-50
2022/04/01 01:07:15;;;;;;;22.83;6.20;;;;;;;14.99;84.47;97825.78;5113142;28;20203;-51
2022/04/01 01:09:44;;;;;;;28.60;5.87;;;;;;;15.04;82.97;97781.84;5113129;28;20199;-50
2022/04/01 01:12:13;;;;;;;18.53;5.30;;;;;;;15.16;80.56;97802.66;5112896;28;20191;-51
2022/04/01 01:14:43;;;;;;;23.27;6.23;;;;;;;15.23;79.55;97866.63;5113040;28;20205;-50
2022/04/01 01:17:12;;;;;;;22.37;5.60;;;;;;;15.26;79.68;97803.66;5113140;28;20237;-50
2022/04/01 01:19:40;;;;;;;25.83;6.50;;;;;;;15.32;80.64;97817.22;5112948;28;20712;-49
2022/04/01 01:22:08;;;;;;;22.97;6.63;;;;;;;15.23;81.42;97877.06;5112602;28;20202;-49
2022/04/01 01:24:38;;;;;;;21.73;5.40;;;;;;;15.14;82.04;97922.16;5112768;28;20314;-50
2022/04/01 01:27:06;;;;;;;32.17;6.03;;;;;;;15.13;82.39;97922.25;5112648;28;20229;-51
2022/04/01 01:29:34;;;;;;;22.37;6.30;;;;;;;15.12;82.37;97873.59;5112701;28;20222;-51
2022/04/01 01:32:04;;;;;;;25.47;6.80;;;;;;;15.12;82.16;97848.25;5112512;28;20195;-50
2022/04/01 01:34:33;;;;;;;22.07;6.37;;;;;;;15.19;81.36;97898.31;5112531;28;20675;-50
2022/04/01 01:37:02;;;;;;;26.97;6.53;;;;;;;15.20;80.82;97903.44;5112798;28;20190;-51
2022/04/01 01:39:29;;;;;;;18.87;5.60;;;;;;;15.28;79.54;97837.50;5112569;28;20209;-50
2022/04/01 01:41:58;;;;;;;19.00;5.53;;;;;;;15.31;79.28;97858.19;5112359;28;20199;-51
2022/04/01 01:44:25;;;;;;;22.97;5.97;;;;;;;15.31;79.00;97920.09;5112445;28;20190;-51
2022/04/01 01:46:53;;;;;;;23.73;6.30;;;;;;;15.24;79.48;97925.75;5112253;28;20615;-51
2022/04/01 01:49:21;;;;;;;24.40;5.53;;;;;;;15.22;79.98;97883.25;5112507;28;20195;-51
2022/04/01 01:54:45;;;;;;;17.20;5.60;;;;;;;15.24;78.92;97914.47;5112189;28;20211;-51
2022/04/01 01:57:16;;;;;;;20.27;5.90;;;;;;;15.22;78.71;97823.13;5112065;28;20215;-51
2022/04/01 01:59:43;;;;;;;25.80;6.37;;;;;;;15.32;77.69;97862.47;5112035;28;20203;-52
2022/04/01 02:02:10;;;;;;;24.40;6.30;;;;;;;15.41;74.70;97901.00;5112269;28;20289;-52
2022/04/01 02:04:39;;;;;;;22.73;5.93;;;;;;;15.46;74.72;97892.84;5112253;28;20682;-51
2022/04/01 02:07:08;;;;;;;44.17;7.47;;;;;;;15.64;70.01;97789.50;5111922;28;20226;-52
2022/04/01 02:09:35;;;;;;;27.70;7.67;;;;;;;15.76;68.63;97859.19;5111913;28;20654;-51
2022/04/01 02:12:02;;;;;;;37.03;7.23;;;;;;;15.87;66.54;97783.31;5111776;28;20282;-50
2022/04/01 02:14:31;;;;;;;42.83;6.80;;;;;;;16.03;67.68;97829.22;5111805;28;20260;-51
2022/04/01 02:16:58;;;;;;;35.83;6.70;;;;;;;15.97;67.55;97894.16;5111561;28;20226;-51
2022/04/01 02:19:25;;;;;;;26.80;6.10;;;;;;;15.95;68.36;97843.72;5111707;28;20195;-51
2022/04/01 02:21:53;;;;;;;20.63;5.83;;;;;;;15.95;68.37;97794.00;5111647;28;20194;-51
2022/04/01 02:24:21;;;;;;;33.37;6.53;;;;;;;15.93;69.64;97808.16;5111650;28;20198;-51
2022/04/01 02:26:49;;;;;;;31.40;6.33;;;;;;;15.83;70.51;97836.81;5111434;28;20314;-51
2022/04/01 02:29:18;;;;;;;24.10;5.87;;;;;;;15.77;70.77;97841.69;5111701;28;20205;-50
2022/04/01 02:31:47;;;;;;;35.47;6.60;;;;;;;15.74;71.52;97850.59;5111647;28;20199;-50
2022/04/01 02:34:14;;;;;;;30.40;6.73;;;;;;;15.63;72.00;97852.38;5111354;28;20221;-51
2022/04/01 02:36:41;;;;;;;34.57;5.83;;;;;;;15.49;72.61;97819.38;5111395;28;20579;-50
2022/04/01 02:39:08;;;;;;;29.83;7.10;;;;;;;15.49;72.38;97832.44;5111011;28;20198;-50
2022/04/01 02:41:35;;;;;;;29.47;6.77;;;;;;;15.66;70.00;97818.97;5111491;28;20203;-50
2022/04/01 02:44:12;;;;;;;35.37;6.60;;;;;;;15.70;69.96;97828.25;5110932;28;20729;-50
2022/04/01 02:46:41;;;;;;;24.10;6.20;;;;;;;15.68;70.24;97877.25;5111142;28;20257;-51
2022/04/01 02:49:11;;;;;;;19.27;5.43;;;;;;;15.65;70.76;97846.06;5111102;28;20259;-51
2022/04/01 02:51:40;;;;;;;27.83;6.03;;;;;;;15.71;71.06;97855.22;5111141;28;20190;-51
2022/04/01 02:54:08;;;;;;;35.83;6.40;;;;;;;15.65;71.29;97853.94;5111120;28;20580;-50
2022/04/01 02:56:37;;;;;;;22.50;6.27;;;;;;;15.60;72.57;97874.34;5111405;28;20190;-50
2022/04/01 02:59:07;;;;;;;20.73;5.67;;;;;;;15.43;73.47;97901.72;5110970;28;20206;-51
2022/04/01 03:01:35;;;;;;;24.27;5.97;;;;;;;15.35;73.84;97884.97;5111131;28;20198;-51
2022/04/01 03:04:02;;;;;;;27.60;6.47;;;;;;;15.32;74.52;97849.41;5110627;28;20187;-52
2022/04/01 03:06:33;;;;;;;24.43;6.27;;;;;;;15.27;75.11;97894.19;5111021;28;20317;-52
2022/04/01 03:09:00;;;;;;;23.47;6.90;;;;;;;15.17;76.25;97908.88;5110713;28;20191;-51
2022/04/01 03:11:27;;;;;;;20.17;6.03;;;;;;;15.11;76.68;97909.34;5112982;27;20693;-52
2022/04/01 03:13:53;;;;;;;29.27;6.13;;;;;;;15.10;77.54;97933.78;5130703;27;20793;-52
2022/04/01 03:16:22;;;;;;;20.00;6.00;;;;;;;15.09;78.12;97916.44;5131222;27;20232;-52
2022/04/01 03:18:49;;;;;;;23.23;7.07;;;;;;;14.90;79.87;97927.34;5124666;27;20770;-52
2022/04/01 03:21:16;;;;;;;24.87;6.77;;;;;;;14.85;79.84;97923.44;5120257;27;20214;-52
2022/04/01 03:23:44;;;;;;;20.97;7.13;;;;;;;14.69;81.60;97925.44;5118522;27;20205;-52
2022/04/01 03:26:12;;;;;;;19.57;6.43;;;;;;;14.64;82.82;97928.41;5119402;27;20249;-51
2022/04/01 03:28:39;;;;;;;25.87;6.33;;;;;;;14.56;83.90;97928.06;5120590;27;20659;-52
2022/04/01 03:31:07;;;;;;;25.20;6.53;;;;;;;14.53;84.16;97918.72;5115307;27;20191;-51
2022/04/01 03:33:35;;;;;;;25.27;6.60;;;;;;;14.47;84.77;97907.84;5120177;27;20579;-51
2022/04/01 03:36:03;;;;;;;31.80;7.37;;;;;;;14.47;85.31;97900.84;5119598;27;20194;-51
2022/04/01 03:38:31;;;;;;;24.90;6.77;;;;;;;14.40;85.96;97907.44;5117726;28;20225;-51
2022/04/01 03:40:59;;;;;;;23.00;6.60;;;;;;;14.43;85.69;97903.81;5098917;28;20195;-51
2022/04/01 03:43:26;;;;;;;21.60;6.47;;;;;;;14.41;86.15;97898.69;5103648;28;20200;-52
2022/04/01 03:45:55;;;;;;;22.40;6.77;;;;;;;14.38;86.00;97904.06;5118032;28;20220;-52
2022/04/01 03:48:28;;;;;;;23.70;6.83;;;;;;;14.35;86.46;97898.22;5118482;28;21271;-51
2022/04/01 03:50:57;;;;;;;23.37;7.27;;;;;;;14.29;86.95;97899.50;5091782;28;20269;-51
2022/04/01 03:53:26;;;;;;;27.63;7.90;;;;;;;14.33;86.42;97908.81;5089619;28;20249;-51
2022/04/01 03:55:55;;;;;;;26.37;7.67;;;;;;;14.27;87.16;97890.94;5101531;28;20305;-51
2022/04/01 03:58:28;;;;;;;22.90;7.30;;;;;;;14.28;86.80;97883.94;5113948;28;20218;-50
2022/04/01 04:00:55;;;;;;;26.03;7.00;;;;;;;14.21;86.71;97890.53;5113705;28;20229;-51
2022/04/01 04:03:22;;;;;;;26.33;6.93;;;;;;;14.23;86.41;97881.66;5117703;27;20571;-52
2022/04/01 04:05:50;;;;;;;27.93;7.90;;;;;;;14.14;87.02;97877.06;5121450;27;20259;-51
2022/04/01 04:08:19;;;;;;;27.93;8.93;;;;;;;14.13;87.17;97893.66;5123012;27;20194;-51
2022/04/01 04:10:47;;;;;;;37.63;7.73;;;;;;;14.12;86.89;97890.22;5123771;27;20190;-51
2022/04/01 04:13:15;;;;;;;38.50;8.63;;;;;;;14.15;86.42;97891.78;5122567;27;20198;-51
2022/04/01 04:15:51;;;;;;;49.20;11.37;;;;;;;14.12;86.18;97871.13;5122200;27;20304;-51
2022/04/01 04:18:20;;;;;;;43.67;10.27;;;;;;;14.11;87.69;97872.06;5119810;28;20201;-51
2022/04/01 04:21:05;;;;;;;38.80;9.13;;;;;;;14.12;87.62;97873.72;5120336;28;20197;-51
2022/04/01 04:23:41;;;;;;;43.03;9.70;;;;;;;14.13;88.93;97881.44;5124156;28;20200;-52
2022/04/01 04:26:13;;;;;;;42.27;8.90;;;;;;;14.15;85.75;97871.75;5115915;28;20273;-52
2022/04/01 04:28:42;;;;;;;37.90;8.73;;;;;;;14.20;85.67;97878.44;5110899;28;20226;-52
2022/04/01 04:31:13;;;;;;;48.03;9.50;;;;;;;14.16;84.74;97888.25;5111264;28;20223;-52
2022/04/01 04:33:45;;;;;;;41.97;9.93;;;;;;;14.16;85.19;97868.22;5116946;28;20219;-52
2022/04/01 04:36:16;;;;;;;51.90;9.37;;;;;;;14.19;84.83;97875.00;5132860;28;20218;-53
2022/04/01 04:38:46;;;;;;;48.53;9.53;;;;;;;14.21;84.82;97893.16;5132510;27;20244;-53
2022/04/01 04:41:13;;;;;;;44.33;8.80;;;;;;;14.10;85.36;97886.06;5128873;28;20613;-53
2022/04/01 04:43:44;;;;;;;41.87;8.87;;;;;;;14.14;85.39;97905.78;5111928;28;20712;-52
2022/04/01 04:46:15;;;;;;;55.87;10.40;;;;;;;14.07;84.80;97881.88;5111772;28;20301;-53
2022/04/01 04:48:43;;;;;;;40.13;8.40;;;;;;;14.16;84.92;97888.25;5111949;28;20195;-52
2022/04/01 04:51:11;;;;;;;38.20;9.10;;;;;;;14.23;84.25;97879.03;5111794;28;20190;-53
2022/04/01 04:53:40;;;;;;;38.80;9.27;;;;;;;14.36;82.90;97861.59;5119341;28;20197;-53
2022/04/01 04:56:08;;;;;;;40.17;8.77;;;;;;;14.48;81.75;97868.59;5117602;28;20211;-53
2022/04/01 04:58:39;;;;;;;41.17;9.60;;;;;;;14.55;80.89;97883.84;5120608;28;20186;-53
2022/04/01 05:01:25;;;;;;;39.90;9.10;;;;;;;14.74;79.05;97865.91;5117296;28;20216;-54
2022/04/01 05:04:22;;;;;;;38.43;9.17;;;;;;;14.99;76.57;97878.88;5114582;28;20202;-51
2022/04/01 05:06:54;;;;;;;36.57;8.83;;;;;;;15.07;75.48;97888.75;5100526;27;20589;-50
2022/04/01 05:09:26;;;;;;;46.57;9.40;;;;;;;15.30;74.68;97879.22;5120223;28;20194;-51
2022/04/01 05:12:02;;;;;;;42.03;9.37;;;;;;;15.53;73.05;97873.94;5117990;28;20273;-50
2022/04/01 05:14:39;;;;;;;40.90;10.20;;;;;;;15.75;71.50;97867.97;5121432;28;20190;-51
2022/04/01 05:17:15;;;;;;;47.43;10.03;;;;;;;16.18;69.77;97878.59;5076789;27;1380067;-49
2022/04/01 05:19:56;;;;;;;52.73;11.67;;;;;;;16.61;66.92;97881.28;5113226;27;20195;-51
2022/04/01 05:22:31;;;;;;;43.87;10.63;;;;;;;16.96;65.21;97877.66;5112801;28;20199;-51
2022/04/01 05:25:02;;;;;;;43.40;10.73;;;;;;;17.38;63.19;97868.09;5112560;28;20198;-51
2022/04/01 05:27:30;;;;;;;45.70;11.87;;;;;;;17.87;61.17;97869.25;5112651;28;20210;-50
2022/04/01 05:30:05;;;;;;;42.63;11.90;;;;;;;18.30;59.21;97862.00;5112330;28;20248;-51
2022/04/01 05:32:39;;;;;;;46.03;11.20;;;;;;;18.41;58.34;97861.06;5112653;28;20594;-51
2022/04/01 05:35:07;;;;;;;44.93;10.27;;;;;;;18.63;57.08;97871.41;5112728;28;20197;-51
2022/04/01 05:37:35;;;;;;;45.17;10.33;;;;;;;19.11;56.13;97883.81;5112516;28;20190;-52
2022/04/01 05:40:05;;;;;;;56.30;10.35;;;;;;;19.61;54.06;97886.34;5112958;28;20190;-54
2022/04/01 05:42:33;;;;;;;45.20;10.23;;;;;;;19.98;52.66;97866.16;5112853;28;20194;-52
2022/04/01 05:45:00;;;;;;;55.47;12.27;;;;;;;20.32;51.51;97871.72;5113096;28;20191;-54
2022/04/01 05:47:30;;;;;;;37.08;10.65;;;;;;;20.03;52.20;97840.22;5112707;28;20222;-52
2022/04/01 05:50:01;;;;;;;46.80;10.65;;;;;;;20.26;51.90;97862.59;5112955;28;20202;-53
2022/04/01 05:52:31;;;;;;;47.72;10.25;;;;;;;20.73;50.70;97885.44;5112940;28;20206;-53
2022/04/01 05:54:58;;;;;;;46.85;10.60;;;;;;;21.25;49.53;97855.66;5112742;28;20285;-53
2022/04/01 05:57:25;;;;;;;52.40;10.15;;;;;;;21.52;49.63;97854.75;5112734;28;20429;-54
2022/04/01 05:59:52;;;;;;;43.17;9.93;;;;;;;21.83;48.10;97854.28;5112710;28;20199;-53
2022/04/01 06:02:37;;;;;;;41.55;9.85;;;;;;;22.07;47.90;97830.69;5112460;28;20198;-52
2022/04/01 06:05:14;;;;;;;47.72;9.70;;;;;;;22.23;46.98;97857.22;5112533;28;20213;-54
2022/04/01 06:07:49;;;;;;;49.80;10.13;;;;;;;22.86;45.61;97862.09;5112554;28;20284;-53
2022/04/01 06:10:25;;;;;;;53.65;10.02;;;;;;;23.57;44.00;97847.47;5112764;28;20197;-52
2022/04/01 06:13:04;;;;;;;51.78;10.85;;;;;;;23.85;43.70;97846.94;5112398;28;20194;-53
2022/04/01 06:15:40;;;;;;;44.53;10.15;;;;;;;24.61;41.95;97862.31;5112483;28;20282;-53
2022/04/01 06:18:19;;;;;;;55.50;10.82;;;;;;;24.94;40.74;97860.34;5111450;28;20256;-53
2022/04/01 06:20:48;;;;;;;48.58;10.52;;;;;;;25.87;40.06;97860.13;5112434;28;20209;-54
2022/04/01 06:23:29;;;;;;;48.90;10.05;;;;;;;25.97;39.36;97842.09;5112099;28;20205;-55
2022/04/01 06:26:00;;;;;;;57.88;11.25;;;;;;;26.20;38.79;97860.63;5112240;28;20210;-53
2022/04/01 06:28:29;;;;;;;45.38;10.48;;;;;;;26.96;37.44;97839.97;5112040;28;20225;-52
2022/04/01 06:31:03;;;;;;;52.00;10.20;;;;;;;27.16;37.36;97832.16;5111805;28;20204;-52
2022/04/01 06:33:50;;;;;;;40.88;10.63;;;;;;;27.79;36.77;97836.63;5111946;28;20198;-53
2022/04/01 06:36:27;;;;;;;49.78;11.15;;;;;;;28.41;35.74;97828.66;5114695;27;20198;-52
2022/04/01 06:38:59;;;;;;;39.30;9.32;;;;;;;29.03;33.06;97808.13;5111899;28;20300;-54
2022/04/01 06:41:37;;;;;;;52.20;11.10;;;;;;;29.25;33.07;97837.13;5112103;28;20722;-52
2022/04/01 06:44:05;;;;;;;39.72;9.85;;;;;;;29.27;32.60;97834.25;5112058;28;20627;-53
2022/04/01 06:46:31;;;;;;;39.03;9.52;;;;;;;29.31;31.90;97826.66;5111668;28;20252;-53
2022/04/01 06:48:58;;;;;;;50.85;11.15;;;;;;;29.33;32.37;97844.16;5111671;28;20198;-53
2022/04/01 06:51:27;;;;;;;47.75;10.80;;;;;;;29.67;31.96;97832.47;5111787;28;20213;-53
2022/04/01 06:53:54;;;;;;;53.30;10.95;;;;;;;30.33;31.30;97830.53;5111773;28;20203;-54
2022/04/01 06:56:21;;;;;;;61.17;12.00;;;;;;;30.85;29.82;97838.59;5111220;28;20191;-52
2022/04/01 06:58:48;;;;;;;48.05;10.85;;;;;;;31.46;29.38;97841.53;5111130;28;20285;-52
2022/04/01 07:01:16;;;;;;;52.67;11.80;;;;;;;31.97;28.35;97832.47;5110912;28;20213;-51
2022/04/01 07:03:43;;;;;;;45.70;10.27;;;;;;;32.29;27.20;97836.69;5110739;28;20678;-52
2022/04/01 07:06:10;;;;;;;57.03;10.75;;;;;;;32.58;27.03;97828.94;5110994;28;20195;-51
2022/04/01 07:08:38;;;;;;;54.95;12.38;;;;;;;32.84;27.12;97820.59;5110948;28;20705;-53
2022/04/01 07:11:05;;;;;;;51.60;11.38;;;;;;;33.32;26.47;97833.97;5110805;28;20553;-53
2022/04/01 07:13:33;;;;;;;50.10;11.13;;;;;;;33.33;26.74;97834.78;5110234;28;20293;-51
2022/04/01 07:15:59;;;;;;;38.20;9.75;;;;;;;32.14;28.37;97832.72;5109481;28;20252;-53
2022/04/01 07:18:26;;;;;;;54.95;10.25;;;;;;;31.18;29.79;97817.00;5110107;28;20668;-52
2022/04/01 07:20:53;;;;;;;50.25;11.98;;;;;;;31.12;29.98;97818.69;5110740;28;20194;-53
2022/04/01 07:23:20;;;;;;;52.00;9.90;;;;;;;31.19;29.61;97807.91;5110609;28;20674;-52
2022/04/01 07:25:48;;;;;;;45.63;10.65;;;;;;;31.79;28.63;97810.97;5110749;28;20285;-53
2022/04/01 07:28:15;;;;;;;40.63;9.52;;;;;;;31.39;29.18;97808.59;5110457;28;20218;-52
2022/04/01 07:30:42;;;;;;;49.72;10.15;;;;;;;31.58;29.25;97814.84;5110439;28;20198;-52
2022/04/01 07:33:11;;;;;;;40.92;9.23;;;;;;;31.93;28.52;97804.44;5110224;28;20674;-52
2022/04/01 07:35:38;;;;;;;36.40;10.32;;;;;;;31.73;28.71;97813.47;5110743;28;20525;-52
2022/04/01 07:38:06;;;;;;;54.90;10.85;;;;;;;32.03;28.30;97815.50;5110674;28;20579;-51
2022/04/01 07:40:33;;;;;;;44.78;10.10;;;;;;;31.69;28.81;97814.16;5120763;28;20190;-53
2022/04/01 07:43:01;;;;;;;42.13;11.25;;;;;;;31.82;28.41;97805.19;5130739;28;20695;-52
2022/04/01 07:45:29;;;;;;;42.65;9.80;;;;;;;32.05;27.96;97803.50;5130668;28;20204;-51
2022/04/01 07:47:56;;;;;;;47.13;10.45;;;;;;;32.17;27.74;97821.53;5129844;28;20705;-54
2022/04/01 07:50:23;;;;;;;44.35;10.15;;;;;;;32.71;27.58;97823.44;5128790;28;20200;-54
2022/04/01 07:52:50;;;;;;;52.38;11.30;;;;;;;32.60;26.71;97813.44;5118488;28;20273;-53
2022/04/01 07:55:18;;;;;;;49.42;10.88;;;;;;;32.55;27.04;97807.91;5109429;28;20220;-52
2022/04/01 07:57:47;;;;;;;40.88;10.02;;;;;;;31.84;27.30;97816.47;5109557;28;20293;-53
2022/04/01 08:00:17;;;;;;;57.10;10.10;;;;;;;32.37;27.19;97824.84;5109242;28;20191;-53
2022/04/01 08:02:44;;;;;;;43.03;11.15;;;;;;;33.21;25.92;97823.97;5119660;28;20233;-53
2022/04/01 08:05:12;;;;;;;49.60;10.48;;;;;;;34.08;25.21;97818.88;5117841;28;20194;-52
2022/04/01 08:07:39;;;;;;;43.85;10.65;;;;;;;33.07;26.27;97809.09;5119011;28;20218;-52
2022/04/01 08:10:07;;;;;;;44.58;10.90;;;;;;;33.48;25.45;97809.09;5119640;28;20202;-52
2022/04/01 08:12:35;;;;;;;69.18;11.70;;;;;;;33.61;25.61;97813.44;5116350;28;20277;-52
2022/04/01 08:15:02;;;;;;;57.70;13.00;;;;;;;33.89;25.25;97816.28;5117881;28;20659;-52
2022/04/01 08:17:30;;;;;;;64.03;12.70;;;;;;;34.53;24.71;97817.16;5119366;28;20222;-52
2022/04/01 08:19:57;;;;;;;48.85;11.35;;;;;;;34.95;23.69;97811.53;5119672;28;20206;-52
2022/04/01 08:22:24;;;;;;;42.35;11.93;;;;;;;35.56;23.16;97812.59;5117832;28;20203;-52
2022/04/01 08:24:51;;;;;;;61.53;10.93;;;;;;;35.24;23.13;97820.41;5123658;28;20220;-52
2022/04/01 08:27:18;;;;;;;57.35;10.65;;;;;;;34.98;22.66;97818.31;5129475;28;20229;-51
2022/04/01 08:29:45;;;;;;;51.67;11.35;;;;;;;35.56;22.54;97804.50;5129708;28;20204;-52
2022/04/01 08:32:12;;;;;;;57.13;11.45;;;;;;;35.43;22.74;97804.84;5129766;28;20586;-52
2022/04/01 08:34:41;;;;;;;55.88;12.43;;;;;;;35.45;22.82;97805.41;5124899;28;20255;-54
2022/04/01 08:37:08;;;;;;;57.58;12.07;;;;;;;34.90;23.78;97808.72;5109853;28;20209;-53
2022/04/01 08:39:35;;;;;;;54.17;11.88;;;;;;;33.79;24.69;97799.06;5109770;28;20198;-53
2022/04/01 08:42:04;;;;;;;52.55;11.90;;;;;;;32.39;25.03;97791.34;5112337;28;20201;-52
2022/04/01 08:44:31;;;;;;;69.15;12.85;;;;;;;30.20;27.56;97784.25;5113529;28;20194;-52
2022/04/01 08:46:59;;;;;;;61.28;11.43;;;;;;;29.56;28.50;97779.63;5113575;28;20201;-53
2022/04/01 08:49:26;;;;;;;55.60;12.27;;;;;;;28.93;29.68;97773.78;5113551;28;20198;-52
2022/04/01 08:51:54;;;;;;;65.65;18.45;;;;;;;28.47;30.60;97774.47;5113538;28;20202;-52
2022/04/01 08:54:21;;;;;;;66.10;12.05;;;;;;;28.20;30.23;97756.72;5113161;28;20202;-52
2022/04/01 08:56:48;;;;;;;53.08;11.50;;;;;;;28.29;30.23;97765.34;5113451;28;20190;-53
2022/04/01 08:59:15;;;;;;;56.75;11.35;;;;;;;27.83;30.77;97725.91;5112936;28;20199;-52
2022/04/01 09:01:44;;;;;;;60.40;12.63;;;;;;;27.96;30.83;97743.84;5112931;28;20190;-52
2022/04/01 09:04:21;;;;;;;48.03;11.98;;;;;;;28.21;30.69;97750.34;5122237;27;20597;-53
2022/04/01 09:06:49;;;;;;;59.25;12.38;;;;;;;27.71;31.14;97744.31;5120294;27;20268;-53
2022/04/01 09:09:25;;;;;;;57.72;12.95;;;;;;;27.32;31.72;97728.81;5121045;27;20639;-53
2022/04/01 09:12:11;;;;;;;55.22;11.60;;;;;;;27.19;31.85;97731.41;5121041;27;20198;-53
2022/04/01 09:14:39;;;;;;;63.70;13.82;;;;;;;27.23;32.28;97730.00;5122222;27;20247;-52
2022/04/01 09:17:07;;;;;;;72.47;13.18;;;;;;;26.77;32.78;97719.72;5120727;27;20232;-53
2022/04/01 09:19:36;;;;;;;79.95;15.55;;;;;;;26.91;32.84;97726.00;5121166;27;20240;-53
2022/04/01 09:22:21;;;;;;;77.28;14.05;;;;;;;27.18;32.41;97710.28;5118454;27;20572;-52
2022/04/01 09:24:58;;;;;;;75.22;12.95;;;;;;;27.63;31.72;97701.81;5119828;27;20234;-52
2022/04/01 09:27:46;;;;;;;67.93;12.70;;;;;;;27.64;30.99;97706.13;5119332;27;20197;-53
2022/04/01 09:30:16;;;;;;;76.45;13.30;;;;;;;28.07;30.80;97704.09;5112385;28;20206;-53
2022/04/01 09:32:44;;;;;;;70.60;13.35;;;;;;;27.88;30.17;97706.69;5112512;28;20204;-53
2022/04/01 09:35:13;;;;;;;66.82;11.55;;;;;;;27.60;30.61;97690.72;5126741;27;20593;-52
2022/04/01 09:37:41;;;;;;;63.42;12.95;;;;;;;27.61;31.26;97695.84;5133238;27;20301;-52
2022/04/01 09:40:13;;;;;;;64.35;12.20;;;;;;;27.89;30.56;97703.78;5132861;27;20695;-53
2022/04/01 09:42:40;;;;;;;64.95;12.65;;;;;;;28.03;30.82;97712.69;5133151;27;20935;-53
2022/04/01 09:45:08;;;;;;;66.20;11.95;;;;;;;28.31;30.29;97700.09;5129427;27;20209;-53
2022/04/01 09:47:39;;;;;;;70.25;12.63;;;;;;;29.66;28.35;97688.28;5111918;27;20226;-53
2022/04/01 09:50:15;;;;;;;67.65;12.68;;;;;;;30.29;27.05;97667.91;5111615;28;20201;-53
2022/04/01 09:52:42;;;;;;;75.13;13.25;;;;;;;30.36;27.40;97694.66;5110725;28;20194;-52
2022/04/01 09:55:11;;;;;;;69.00;13.48;;;;;;;29.67;27.48;97701.47;5112063;28;20295;-53
2022/04/01 09:57:38;;;;;;;68.18;12.82;;;;;;;29.27;28.09;97692.63;5112173;28;20641;-53
2022/04/01 10:00:09;;;;;;;81.55;14.10;;;;;;;28.32;28.50;97685.75;5112390;28;20198;-52
2022/04/01 10:02:39;;;;;;;77.50;12.68;;;;;;;27.84;29.23;97682.25;5112045;28;20198;-53
2022/04/01 10:05:07;;;;;;;64.53;12.63;;;;;;;27.22;30.57;97677.72;5111787;28;20694;-53
2022/04/01 10:07:35;;;;;;;73.78;13.18;;;;;;;26.93;30.47;97670.75;5112024;28;20696;-53
2022/04/01 10:10:05;;;;;;;66.07;13.95;;;;;;;26.60;31.09;97658.97;5111589;28;20199;-54
2022/04/01 10:12:41;;;;;;;64.63;12.02;;;;;;;26.58;31.41;97658.34;5111121;28;20194;-52
2022/04/01 10:15:10;;;;;;;59.78;13.45;;;;;;;26.38;31.86;97650.97;5111736;28;20201;-52
2022/04/01 10:17:39;;;;;;;81.35;13.35;;;;;;;26.41;31.47;97652.44;5111440;28;20275;-52
2022/04/01 10:20:08;;;;;;;78.93;13.32;;;;;;;26.20;31.72;97655.03;5111869;28;20666;-52
2022/04/01 10:22:36;;;;;;;73.05;12.32;;;;;;;26.29;31.56;97656.63;5111475;28;20199;-52
2022/04/01 10:25:09;;;;;;;67.70;12.60;;;;;;;26.30;31.31;97656.41;5111501;28;20198;-53
2022/04/01 10:27:40;;;;;;;75.40;13.60;;;;;;;26.03;31.79;97643.81;5111619;28;20554;-53
2022/04/01 10:30:09;;;;;;;73.13;12.48;;;;;;;26.27;31.46;97634.66;5111284;28;20230;-53
2022/04/01 10:32:40;;;;;;;71.22;13.30;;;;;;;26.42;31.68;97635.44;5111453;28;20199;-53
2022/04/01 10:35:10;;;;;;;75.25;12.93;;;;;;;26.50;31.61;97624.69;5111361;28;20199;-52
2022/04/01 10:37:37;;;;;;;66.07;12.75;;;;;;;26.46;31.14;97618.09;5111331;28;20201;-52
2022/04/01 10:40:15;;;;;;;72.80;14.00;;;;;;;26.43;31.12;97605.19;5111174;28;20194;-52
2022/04/01 10:42:44;;;;;;;57.42;11.68;;;;;;;26.32;31.46;97595.88;5111151;28;20191;-52
2022/04/01 10:45:24;;;;;;;67.32;12.35;;;;;;;26.35;31.28;97605.31;5111022;28;20190;-53
2022/04/01 10:53:45;;;;;;;54.95;12.18;;;;;;;26.20;30.96;97610.66;5111483;28;20193;-52
2022/04/01 10:56:36;;;;;;;63.60;12.18;;;;;;;26.36;30.82;97613.09;5110206;28;20714;-53
2022/04/01 10:59:12;;;;;;;69.55;12.63;;;;;;;26.53;30.75;97611.00;5110886;28;20727;-52
2022/04/01 11:01:43;;;;;;;73.35;14.13;;;;;;;26.76;31.13;97611.59;5110693;27;20222;-52
2022/04/01 11:04:30;;;;;;;57.70;12.80;;;;;;;26.99;31.12;97602.59;5114068;27;20201;-54
2022/04/01 11:07:00;;;;;;;70.03;12.73;;;;;;;26.84;30.88;97594.69;5110886;28;20662;-52
2022/04/01 11:09:45;;;;;;;70.57;12.25;;;;;;;26.90;31.48;97598.41;5119929;27;20716;-53
2022/04/01 11:12:36;;;;;;;58.70;12.05;;;;;;;26.78;31.55;97595.44;5124116;27;20190;-53
2022/04/01 11:15:17;;;;;;;72.45;12.55;;;;;;;26.80;31.64;97584.59;5131383;27;20654;-53
2022/04/01 11:18:03;;;;;;;80.00;11.68;;;;;;;26.71;31.54;97582.09;5131281;27;20225;-53
2022/04/01 11:20:32;;;;;;;57.90;10.90;;;;;;;26.65;32.03;97580.19;5131112;27;20285;-53
2022/04/01 11:23:10;;;;;;;61.78;11.95;;;;;;;26.48;31.52;97572.69;5131218;27;20669;-52
2022/04/01 11:25:52;;;;;;;58.28;10.70;;;;;;;26.39;31.76;97569.34;5131370;27;20194;-52
2022/04/01 11:28:19;;;;;;;58.15;10.52;;;;;;;26.25;32.01;97562.22;5130974;27;20233;-52
2022/04/01 11:31:05;;;;;;;69.97;12.48;;;;;;;26.31;31.90;97564.16;5131053;27;20289;-53
2022/04/01 11:33:32;;;;;;;74.03;11.27;;;;;;;26.31;32.01;97559.66;5131162;27;20215;-53
2022/04/01 11:35:59;;;;;;;49.13;10.43;;;;;;;26.20;31.71;97554.81;5131089;27;20202;-53
2022/04/01 11:38:28;;;;;;;80.28;11.43;;;;;;;26.08;31.85;97555.50;5131025;27;20202;-54
2022/04/01 11:40:59;;;;;;;70.63;11.85;;;;;;;25.97;32.34;97541.69;5131149;27;20243;-53
2022/04/01 11:43:27;;;;;;;55.97;10.55;;;;;;;25.85;32.38;97550.34;5131290;28;20197;-52